Terminal Aerodrome Forecast
Issued by NWS

Current Version | Previous Version | Graphics & Text | Print | Product List | Glossary On
Versions: 1 2 3 4 5 6 7 8 9 10 11 12 13 14 15 16 17 18 19 20 21 22 23 24 25 26
000
FTUS41 KILN 171100
TAFLUK
TAF
KLUK 171120Z 1712/1812 32003KT 4SM BR FEW008 BKN025
      TEMPO 1712/1713 1SM BR
     FM171400 35006KT P6SM SKC
     FM172300 00000KT P6SM SCT250
     FM180800 00000KT 3SM BR SCT250=

USA.gov is the U.S. government's official web portal to all federal, state and local government web resources and services.